sensor_id;sensor_type;location;lat;lon;timestamp;temperature;humidity
29713;DHT22;16623;53.632;10.016;2023-02-01T00:01:55;5.50;99.90
29713;DHT22;16623;53.632;10.016;2023-02-01T00:04:20;5.50;99.90
29713;DHT22;16623;53.632;10.016;2023-02-01T00:06:46;5.60;99.90
29713;DHT22;16623;53.632;10.016;2023-02-01T00:09:12;5.60;99.90
29713;DHT22;16623;53.632;10.016;2023-02-01T00:11:37;5.60;99.90
29713;DHT22;16623;53.632;10.016;2023-02-01T00:14:03;5.40;99.90
29713;DHT22;16623;53.632;10.016;2023-02-01T00:16:30;5.40;99.90
29713;DHT22;16623;53.632;10.016;2023-02-01T00:21:26;5.30;99.90
29713;DHT22;16623;53.632;10.016;2023-02-01T00:23:52;5.20;99.90
29713;DHT22;16623;53.632;10.016;2023-02-01T00:26:33;5.20;99.90
29713;DHT22;16623;53.632;10.016;2023-02-01T00:29:00;5.20;99.90
29713;DHT22;16623;53.632;10.016;2023-02-01T00:31:26;5.30;99.90
29713;DHT22;16623;53.632;10.016;2023-02-01T00:33:51;5.40;99.90
29713;DHT22;16623;53.632;10.016;2023-02-01T00:36:17;5.40;99.90
29713;DHT22;16623;53.632;10.016;2023-02-01T00:38:43;5.40;99.90
29713;DHT22;16623;53.632;10.016;2023-02-01T00:41:14;5.40;99.90
29713;DHT22;16623;53.632;10.016;2023-02-01T00:43:40;5.40;99.90
29713;DHT22;16623;53.632;10.016;2023-02-01T00:46:05;5.40;99.90
29713;DHT22;16623;53.632;10.016;2023-02-01T00:48:31;5.40;99.90
29713;DHT22;16623;53.632;10.016;2023-02-01T00:51:01;5.40;99.90
29713;DHT22;16623;53.632;10.016;2023-02-01T00:55:53;5.50;99.90
29713;DHT22;16623;53.632;10.016;2023-02-01T00:58:18;5.60;99.90
29713;DHT22;16623;53.632;10.016;2023-02-01T01:00:44;5.60;99.90
29713;DHT22;16623;53.632;10.016;2023-02-01T01:03:09;5.60;99.90
29713;DHT22;16623;53.632;10.016;2023-02-01T01:05:45;5.70;99.90
29713;DHT22;16623;53.632;10.016;2023-02-01T01:08:10;5.70;99.90
29713;DHT22;16623;53.632;10.016;2023-02-01T01:10:36;5.80;99.90
29713;DHT22;16623;53.632;10.016;2023-02-01T01:13:01;5.70;99.90
29713;DHT22;16623;53.632;10.016;2023-02-01T01:15:27;5.70;99.90
29713;DHT22;16623;53.632;10.016;2023-02-01T01:17:52;5.80;99.90
29713;DHT22;16623;53.632;10.016;2023-02-01T01:20:18;5.80;99.90
29713;DHT22;16623;53.632;10.016;2023-02-01T01:22:47;5.80;99.90
29713;DHT22;16623;53.632;10.016;2023-02-01T01:25:12;5.80;99.90
29713;DHT22;16623;53.632;10.016;2023-02-01T01:27:38;5.80;99.90
29713;DHT22;16623;53.632;10.016;2023-02-01T01:30:05;5.80;99.90
29713;DHT22;16623;53.632;10.016;2023-02-01T01:32:30;5.80;99.90
29713;DHT22;16623;53.632;10.016;2023-02-01T01:37:22;5.80;99.90
29713;DHT22;16623;53.632;10.016;2023-02-01T01:39:47;5.80;99.90
29713;DHT22;16623;53.632;10.016;2023-02-01T01:42:13;5.80;99.90
29713;DHT22;16623;53.632;10.016;2023-02-01T01:47:33;5.90;99.90
29713;DHT22;16623;53.632;10.016;2023-02-01T01:50:02;5.90;99.90
29713;DHT22;16623;53.632;10.016;2023-02-01T01:52:28;5.90;99.90
29713;DHT22;16623;53.632;10.016;2023-02-01T01:54:54;5.90;99.90
29713;DHT22;16623;53.632;10.016;2023-02-01T01:57:29;5.90;99.90
29713;DHT22;16623;53.632;10.016;2023-02-01T02:00:04;7.90;99.90
29713;DHT22;16623;53.632;10.016;2023-02-01T02:02:30;6.00;99.90
29713;DHT22;16623;53.632;10.016;2023-02-01T02:04:56;6.00;99.90
29713;DHT22;16623;53.632;10.016;2023-02-01T02:07:27;6.10;99.90
29713;DHT22;16623;53.632;10.016;2023-02-01T02:09:54;6.10;99.90
29713;DHT22;16623;53.632;10.016;2023-02-01T02:12:20;6.10;99.90
29713;DHT22;16623;53.632;10.016;2023-02-01T02:14:45;6.10;99.90
29713;DHT22;16623;53.632;10.016;2023-02-01T02:31:15;6.10;99.90
29713;DHT22;16623;53.632;10.016;2023-02-01T02:36:49;6.10;99.90
29713;DHT22;16623;53.632;10.016;2023-02-01T02:42:12;6.00;99.90
29713;DHT22;16623;53.632;10.016;2023-02-01T02:48:23;6.10;99.90
29713;DHT22;16623;53.632;10.016;2023-02-01T02:51:01;6.00;99.90
29713;DHT22;16623;53.632;10.016;2023-02-01T02:54:07;5.90;99.90
29713;DHT22;16623;53.632;10.016;2023-02-01T02:56:53;5.90;99.90
29713;DHT22;16623;53.632;10.016;2023-02-01T02:59:40;5.80;99.90
29713;DHT22;16623;53.632;10.016;2023-02-01T03:02:27;5.80;99.90
29713;DHT22;16623;53.632;10.016;2023-02-01T03:05:12;5.80;99.90
29713;DHT22;16623;53.632;10.016;2023-02-01T03:10:27;5.70;99.90
29713;DHT22;16623;53.632;10.016;2023-02-01T03:13:00;5.70;99.90
29713;DHT22;16623;53.632;10.016;2023-02-01T03:15:34;5.70;99.90
29713;DHT22;16623;53.632;10.016;2023-02-01T03:18:02;5.60;99.90
29713;DHT22;16623;53.632;10.016;2023-02-01T03:20:30;5.60;99.90
29713;DHT22;16623;53.632;10.016;2023-02-01T03:22:58;5.60;99.90
29713;DHT22;16623;53.632;10.016;2023-02-01T03:25:31;5.60;99.90
29713;DHT22;16623;53.632;10.016;2023-02-01T03:28:02;5.40;99.90
29713;DHT22;16623;53.632;10.016;2023-02-01T03:30:33;5.30;99.90
29713;DHT22;16623;53.632;10.016;2023-02-01T03:33:02;5.30;99.90
29713;DHT22;16623;53.632;10.016;2023-02-01T03:38:01;5.20;99.90
29713;DHT22;16623;53.632;10.016;2023-02-01T03:40:27;5.30;99.90
29713;DHT22;16623;53.632;10.016;2023-02-01T03:42:58;5.40;99.90
29713;DHT22;16623;53.632;10.016;2023-02-01T03:45:31;5.20;99.90
29713;DHT22;16623;53.632;10.016;2023-02-01T03:48:28;5.20;99.90
29713;DHT22;16623;53.632;10.016;2023-02-01T03:50:58;5.20;99.90
29713;DHT22;16623;53.632;10.016;2023-02-01T03:53:26;5.20;99.90
29713;DHT22;16623;53.632;10.016;2023-02-01T03:55:53;5.20;99.90
29713;DHT22;16623;53.632;10.016;2023-02-01T03:58:21;5.20;99.90
29713;DHT22;16623;53.632;10.016;2023-02-01T04:00:58;5.10;99.90
29713;DHT22;16623;53.632;10.016;2023-02-01T04:05:51;5.10;99.90
29713;DHT22;16623;53.632;10.016;2023-02-01T04:08:18;5.10;99.90
29713;DHT22;16623;53.632;10.016;2023-02-01T04:10:44;5.10;99.90
29713;DHT22;16623;53.632;10.016;2023-02-01T04:13:09;5.10;99.90
29713;DHT22;16623;53.632;10.016;2023-02-01T04:15:35;5.10;99.90
29713;DHT22;16623;53.632;10.016;2023-02-01T04:18:01;5.10;99.90
29713;DHT22;16623;53.632;10.016;2023-02-01T04:20:26;5.20;99.90
29713;DHT22;16623;53.632;10.016;2023-02-01T04:22:52;5.20;99.90
29713;DHT22;16623;53.632;10.016;2023-02-01T04:25:18;5.10;99.90
29713;DHT22;16623;53.632;10.016;2023-02-01T04:27:44;5.10;99.90
29713;DHT22;16623;53.632;10.016;2023-02-01T04:30:10;5.10;99.90
29713;DHT22;16623;53.632;10.016;2023-02-01T04:32:37;5.20;99.90
29713;DHT22;16623;53.632;10.016;2023-02-01T04:35:03;5.10;99.90
29713;DHT22;16623;53.632;10.016;2023-02-01T04:37:29;5.10;99.90
29713;DHT22;16623;53.632;10.016;2023-02-01T04:39:57;5.10;99.90
29713;DHT22;16623;53.632;10.016;2023-02-01T04:42:23;5.10;99.90
29713;DHT22;16623;53.632;10.016;2023-02-01T04:44:48;5.10;99.90
29713;DHT22;16623;53.632;10.016;2023-02-01T04:47:14;5.10;99.90
29713;DHT22;16623;53.632;10.016;2023-02-01T04:49:41;5.10;99.90
29713;DHT22;16623;53.632;10.016;2023-02-01T04:52:06;5.10;99.90
29713;DHT22;16623;53.632;10.016;2023-02-01T04:54:32;5.00;99.90
29713;DHT22;16623;53.632;10.016;2023-02-01T04:56:58;5.00;99.90
29713;DHT22;16623;53.632;10.016;2023-02-01T04:59:23;5.00;99.90
29713;DHT22;16623;53.632;10.016;2023-02-01T05:01:49;5.00;99.90
29713;DHT22;16623;53.632;10.016;2023-02-01T05:06:40;5.00;99.90
29713;DHT22;16623;53.632;10.016;2023-02-01T05:09:05;4.90;99.90
29713;DHT22;16623;53.632;10.016;2023-02-01T05:11:31;4.90;99.90
29713;DHT22;16623;53.632;10.016;2023-02-01T05:14:15;4.90;99.90
29713;DHT22;16623;53.632;10.016;2023-02-01T05:16:41;4.90;99.90
29713;DHT22;16623;53.632;10.016;2023-02-01T05:19:06;4.90;99.90
29713;DHT22;16623;53.632;10.016;2023-02-01T05:21:31;4.90;99.90
29713;DHT22;16623;53.632;10.016;2023-02-01T05:26:36;4.70;99.90
29713;DHT22;16623;53.632;10.016;2023-02-01T05:29:02;4.70;99.90
29713;DHT22;16623;53.632;10.016;2023-02-01T05:31:27;4.60;99.90
29713;DHT22;16623;53.632;10.016;2023-02-01T05:33:53;4.50;99.90
29713;DHT22;16623;53.632;10.016;2023-02-01T05:36:18;4.40;99.90
29713;DHT22;16623;53.632;10.016;2023-02-01T05:38:44;4.40;99.90
29713;DHT22;16623;53.632;10.016;2023-02-01T05:41:09;4.30;99.90
29713;DHT22;16623;53.632;10.016;2023-02-01T05:43:35;4.20;99.90
29713;DHT22;16623;53.632;10.016;2023-02-01T05:46:00;4.20;99.90
29713;DHT22;16623;53.632;10.016;2023-02-01T05:48:26;4.20;99.90
29713;DHT22;16623;53.632;10.016;2023-02-01T05:50:52;4.10;99.90
29713;DHT22;16623;53.632;10.016;2023-02-01T05:53:17;4.10;99.90
29713;DHT22;16623;53.632;10.016;2023-02-01T05:55:43;4.10;99.90
29713;DHT22;16623;53.632;10.016;2023-02-01T05:58:09;4.00;99.90
29713;DHT22;16623;53.632;10.016;2023-02-01T06:00:34;4.00;99.90
29713;DHT22;16623;53.632;10.016;2023-02-01T06:03:00;4.00;99.90
29713;DHT22;16623;53.632;10.016;2023-02-01T06:05:26;4.00;99.90
29713;DHT22;16623;53.632;10.016;2023-02-01T06:07:52;3.90;99.90
29713;DHT22;16623;53.632;10.016;2023-02-01T06:10:18;3.80;99.90
29713;DHT22;16623;53.632;10.016;2023-02-01T06:12:44;3.80;99.90
29713;DHT22;16623;53.632;10.016;2023-02-01T06:15:11;3.80;99.90
29713;DHT22;16623;53.632;10.016;2023-02-01T06:17:36;3.80;99.90
29713;DHT22;16623;53.632;10.016;2023-02-01T06:20:03;3.80;99.90
29713;DHT22;16623;53.632;10.016;2023-02-01T06:22:29;3.80;99.90
29713;DHT22;16623;53.632;10.016;2023-02-01T06:24:54;3.90;99.90
29713;DHT22;16623;53.632;10.016;2023-02-01T06:27:20;3.90;99.90
29713;DHT22;16623;53.632;10.016;2023-02-01T06:29:45;3.90;99.90
29713;DHT22;16623;53.632;10.016;2023-02-01T06:32:11;3.90;99.90
29713;DHT22;16623;53.632;10.016;2023-02-01T06:34:36;3.80;99.90
29713;DHT22;16623;53.632;10.016;2023-02-01T06:37:02;3.90;99.90
29713;DHT22;16623;53.632;10.016;2023-02-01T06:39:28;4.00;99.90
29713;DHT22;16623;53.632;10.016;2023-02-01T06:41:54;4.00;99.90
29713;DHT22;16623;53.632;10.016;2023-02-01T06:44:19;4.00;99.90
29713;DHT22;16623;53.632;10.016;2023-02-01T06:46:46;4.00;99.90
29713;DHT22;16623;53.632;10.016;2023-02-01T06:49:11;4.10;99.90
29713;DHT22;16623;53.632;10.016;2023-02-01T06:51:37;4.10;99.90
29713;DHT22;16623;53.632;10.016;2023-02-01T06:54:02;4.10;99.90
29713;DHT22;16623;53.632;10.016;2023-02-01T06:58:56;4.30;99.90
29713;DHT22;16623;53.632;10.016;2023-02-01T07:01:22;4.30;99.90
29713;DHT22;16623;53.632;10.016;2023-02-01T07:03:49;4.40;99.90
29713;DHT22;16623;53.632;10.016;2023-02-01T07:06:15;4.30;99.90
29713;DHT22;16623;53.632;10.016;2023-02-01T07:08:40;4.40;99.90
29713;DHT22;16623;53.632;10.016;2023-02-01T07:11:08;4.40;99.90
29713;DHT22;16623;53.632;10.016;2023-02-01T07:13:34;4.50;99.90
29713;DHT22;16623;53.632;10.016;2023-02-01T07:16:05;4.50;99.90
29713;DHT22;16623;53.632;10.016;2023-02-01T07:18:31;4.70;99.90
29713;DHT22;16623;53.632;10.016;2023-02-01T07:23:24;4.70;99.90
29713;DHT22;16623;53.632;10.016;2023-02-01T07:25:57;4.70;99.90
29713;DHT22;16623;53.632;10.016;2023-02-01T07:28:23;4.70;99.90
29713;DHT22;16623;53.632;10.016;2023-02-01T07:30:49;4.80;99.90
29713;DHT22;16623;53.632;10.016;2023-02-01T07:33:25;4.80;99.90
29713;DHT22;16623;53.632;10.016;2023-02-01T07:35:51;4.80;99.90
29713;DHT22;16623;53.632;10.016;2023-02-01T07:38:17;4.90;99.90
29713;DHT22;16623;53.632;10.016;2023-02-01T07:40:43;4.90;99.90
29713;DHT22;16623;53.632;10.016;2023-02-01T07:43:09;5.00;99.90
29713;DHT22;16623;53.632;10.016;2023-02-01T07:45:35;5.00;99.90
29713;DHT22;16623;53.632;10.016;2023-02-01T07:48:01;5.00;99.90
29713;DHT22;16623;53.632;10.016;2023-02-01T07:50:27;5.00;99.90
29713;DHT22;16623;53.632;10.016;2023-02-01T07:52:53;5.00;99.90
29713;DHT22;16623;53.632;10.016;2023-02-01T07:57:44;4.90;99.90
29713;DHT22;16623;53.632;10.016;2023-02-01T08:00:11;5.00;99.90
29713;DHT22;16623;53.632;10.016;2023-02-01T08:02:57;5.00;99.90
29713;DHT22;16623;53.632;10.016;2023-02-01T08:05:23;5.10;99.90
29713;DHT22;16623;53.632;10.016;2023-02-01T08:07:49;5.20;99.90
29713;DHT22;16623;53.632;10.016;2023-02-01T08:10:17;5.20;99.90
29713;DHT22;16623;53.632;10.016;2023-02-01T08:12:43;5.20;99.90
29713;DHT22;16623;53.632;10.016;2023-02-01T08:15:15;5.30;99.90
29713;DHT22;16623;53.632;10.016;2023-02-01T08:17:48;5.40;99.90
29713;DHT22;16623;53.632;10.016;2023-02-01T08:20:14;5.40;99.90
29713;DHT22;16623;53.632;10.016;2023-02-01T08:22:39;5.40;99.90
29713;DHT22;16623;53.632;10.016;2023-02-01T08:25:06;6.30;99.90
29713;DHT22;16623;53.632;10.016;2023-02-01T08:27:35;5.60;99.90
29713;DHT22;16623;53.632;10.016;2023-02-01T08:30:01;5.60;99.90
29713;DHT22;16623;53.632;10.016;2023-02-01T08:32:27;5.70;99.90
29713;DHT22;16623;53.632;10.016;2023-02-01T08:34:53;5.80;99.90
29713;DHT22;16623;53.632;10.016;2023-02-01T08:37:18;5.80;99.90
29713;DHT22;16623;53.632;10.016;2023-02-01T08:39:44;5.80;99.90
29713;DHT22;16623;53.632;10.016;2023-02-01T08:42:10;5.90;99.90
29713;DHT22;16623;53.632;10.016;2023-02-01T08:44:55;5.80;99.90
29713;DHT22;16623;53.632;10.016;2023-02-01T08:47:20;5.80;99.90
29713;DHT22;16623;53.632;10.016;2023-02-01T08:49:46;5.80;99.90
29713;DHT22;16623;53.632;10.016;2023-02-01T08:52:11;5.80;99.90
29713;DHT22;16623;53.632;10.016;2023-02-01T08:54:37;5.80;99.90
29713;DHT22;16623;53.632;10.016;2023-02-01T08:57:04;5.80;99.90
29713;DHT22;16623;53.632;10.016;2023-02-01T08:59:30;6.20;99.90
29713;DHT22;16623;53.632;10.016;2023-02-01T09:01:55;5.70;99.90
29713;DHT22;16623;53.632;10.016;2023-02-01T09:04:21;5.80;99.90
29713;DHT22;16623;53.632;10.016;2023-02-01T09:06:47;5.80;99.90
29713;DHT22;16623;53.632;10.016;2023-02-01T09:09:12;6.30;99.90
29713;DHT22;16623;53.632;10.016;2023-02-01T09:11:38;6.00;99.90
29713;DHT22;16623;53.632;10.016;2023-02-01T09:14:03;6.20;99.90
29713;DHT22;16623;53.632;10.016;2023-02-01T09:16:29;6.30;99.90
29713;DHT22;16623;53.632;10.016;2023-02-01T09:18:55;6.40;99.90
29713;DHT22;16623;53.632;10.016;2023-02-01T09:21:20;6.40;99.90
29713;DHT22;16623;53.632;10.016;2023-02-01T09:23:46;6.50;99.90
29713;DHT22;16623;53.632;10.016;2023-02-01T09:26:14;6.60;99.90
29713;DHT22;16623;53.632;10.016;2023-02-01T09:28:39;6.80;99.90
29713;DHT22;16623;53.632;10.016;2023-02-01T09:31:05;6.80;99.90
29713;DHT22;16623;53.632;10.016;2023-02-01T09:33:30;6.80;99.90
29713;DHT22;16623;53.632;10.016;2023-02-01T09:35:58;6.90;99.90
29713;DHT22;16623;53.632;10.016;2023-02-01T09:38:24;6.90;99.90
29713;DHT22;16623;53.632;10.016;2023-02-01T09:40:51;6.90;99.90
29713;DHT22;16623;53.632;10.016;2023-02-01T09:43:37;6.90;99.90
29713;DHT22;16623;53.632;10.016;2023-02-01T09:46:27;7.00;99.90
29713;DHT22;16623;53.632;10.016;2023-02-01T09:48:56;6.90;99.90
29713;DHT22;16623;53.632;10.016;2023-02-01T09:51:31;6.90;99.90
29713;DHT22;16623;53.632;10.016;2023-02-01T09:53:59;6.90;99.90
29713;DHT22;16623;53.632;10.016;2023-02-01T09:56:34;6.80;99.90
29713;DHT22;16623;53.632;10.016;2023-02-01T09:59:22;6.90;99.90
29713;DHT22;16623;53.632;10.016;2023-02-01T10:01:48;6.90;99.90
29713;DHT22;16623;53.632;10.016;2023-02-01T10:04:15;6.90;99.90
29713;DHT22;16623;53.632;10.016;2023-02-01T10:07:06;7.90;99.90
29713;DHT22;16623;53.632;10.016;2023-02-01T10:18:11;7.00;99.90
29713;DHT22;16623;53.632;10.016;2023-02-01T10:26:19;7.10;99.90
29713;DHT22;16623;53.632;10.016;2023-02-01T10:28:58;7.10;99.90
29713;DHT22;16623;53.632;10.016;2023-02-01T10:31:28;7.10;99.90
29713;DHT22;16623;53.632;10.016;2023-02-01T10:33:57;7.00;99.90
29713;DHT22;16623;53.632;10.016;2023-02-01T10:36:34;7.00;99.90
29713;DHT22;16623;53.632;10.016;2023-02-01T10:39:02;7.00;99.90
29713;DHT22;16623;53.632;10.016;2023-02-01T10:41:34;7.00;99.90
29713;DHT22;16623;53.632;10.016;2023-02-01T10:44:03;7.00;99.90
29713;DHT22;16623;53.632;10.016;2023-02-01T10:46:30;6.90;99.90
29713;DHT22;16623;53.632;10.016;2023-02-01T10:49:03;7.00;99.90
29713;DHT22;16623;53.632;10.016;2023-02-01T10:51:43;6.90;99.90
29713;DHT22;16623;53.632;10.016;2023-02-01T10:54:20;6.70;99.90
29713;DHT22;16623;53.632;10.016;2023-02-01T10:56:47;6.70;99.90
29713;DHT22;16623;53.632;10.016;2023-02-01T10:59:19;6.70;99.90
29713;DHT22;16623;53.632;10.016;2023-02-01T11:01:47;6.70;99.90
29713;DHT22;16623;53.632;10.016;2023-02-01T11:06:47;6.60;99.90
29713;DHT22;16623;53.632;10.016;2023-02-01T11:09:24;6.50;99.90
29713;DHT22;16623;53.632;10.016;2023-02-01T11:14:18;5.90;99.90
29713;DHT22;16623;53.632;10.016;2023-02-01T11:17:16;5.70;99.90
29713;DHT22;16623;53.632;10.016;2023-02-01T11:19:47;5.60;99.90
29713;DHT22;16623;53.632;10.016;2023-02-01T11:22:21;5.60;99.90
29713;DHT22;16623;53.632;10.016;2023-02-01T11:24:47;5.60;99.90
29713;DHT22;16623;53.632;10.016;2023-02-01T11:27:18;5.70;99.90
29713;DHT22;16623;53.632;10.016;2023-02-01T11:29:49;5.80;99.90
29713;DHT22;16623;53.632;10.016;2023-02-01T11:32:17;5.90;99.90
29713;DHT22;16623;53.632;10.016;2023-02-01T11:34:47;6.00;99.90
29713;DHT22;16623;53.632;10.016;2023-02-01T11:37:20;6.00;99.90
29713;DHT22;16623;53.632;10.016;2023-02-01T11:42:35;6.20;99.90
29713;DHT22;16623;53.632;10.016;2023-02-01T11:45:23;6.30;99.90
29713;DHT22;16623;53.632;10.016;2023-02-01T11:47:52;6.30;99.90
29713;DHT22;16623;53.632;10.016;2023-02-01T11:50:37;7.50;99.90
29713;DHT22;16623;53.632;10.016;2023-02-01T11:53:24;6.50;99.90
29713;DHT22;16623;53.632;10.016;2023-02-01T11:56:04;6.50;99.90
29713;DHT22;16623;53.632;10.016;2023-02-01T12:14:15;6.40;99.90
29713;DHT22;16623;53.632;10.016;2023-02-01T12:36:36;5.90;99.90
29713;DHT22;16623;53.632;10.016;2023-02-01T12:39:23;5.80;99.90
29713;DHT22;16623;53.632;10.016;2023-02-01T12:44:38;5.60;99.90
29713;DHT22;16623;53.632;10.016;2023-02-01T12:47:16;5.50;99.90
29713;DHT22;16623;53.632;10.016;2023-02-01T12:52:40;5.30;99.90
29713;DHT22;16623;53.632;10.016;2023-02-01T12:55:36;5.30;99.90
29713;DHT22;16623;53.632;10.016;2023-02-01T12:58:24;5.20;99.90
29713;DHT22;16623;53.632;10.016;2023-02-01T13:01:08;5.20;99.90
29713;DHT22;16623;53.632;10.016;2023-02-01T13:04:01;5.20;99.90
29713;DHT22;16623;53.632;10.016;2023-02-01T13:06:35;5.20;99.90
29713;DHT22;16623;53.632;10.016;2023-02-01T13:11:53;5.20;99.90
29713;DHT22;16623;53.632;10.016;2023-02-01T13:14:33;5.20;99.90
29713;DHT22;16623;53.632;10.016;2023-02-01T13:17:11;5.20;99.90
29713;DHT22;16623;53.632;10.016;2023-02-01T13:20:05;5.20;99.90
29713;DHT22;16623;53.632;10.016;2023-02-01T13:22:39;5.20;99.90
29713;DHT22;16623;53.632;10.016;2023-02-01T13:28:23;5.60;99.90
29713;DHT22;16623;53.632;10.016;2023-02-01T13:31:13;5.80;99.90
29713;DHT22;16623;53.632;10.016;2023-02-01T13:36:47;6.20;99.90
29713;DHT22;16623;53.632;10.016;2023-02-01T13:42:00;6.40;99.90
29713;DHT22;16623;53.632;10.016;2023-02-01T13:47:03;6.30;99.90
29713;DHT22;16623;53.632;10.016;2023-02-01T13:49:38;6.20;99.90
29713;DHT22;16623;53.632;10.016;2023-02-01T13:52:05;6.20;99.90
29713;DHT22;16623;53.632;10.016;2023-02-01T13:54:33;6.20;99.90
29713;DHT22;16623;53.632;10.016;2023-02-01T13:57:00;6.10;99.90
29713;DHT22;16623;53.632;10.016;2023-02-01T14:05:10;5.50;99.90
29713;DHT22;16623;53.632;10.016;2023-02-01T14:07:36;5.30;99.90
29713;DHT22;16623;53.632;10.016;2023-02-01T14:11:02;5.10;99.90
29713;DHT22;16623;53.632;10.016;2023-02-01T14:13:22;5.10;99.90
29713;DHT22;16623;53.632;10.016;2023-02-01T14:23:43;4.60;99.90
29713;DHT22;16623;53.632;10.016;2023-02-01T14:26:14;5.20;99.90
29713;DHT22;16623;53.632;10.016;2023-02-01T14:28:44;4.50;99.90
29713;DHT22;16623;53.632;10.016;2023-02-01T14:31:40;4.40;99.90
29713;DHT22;16623;53.632;10.016;2023-02-01T14:34:17;4.40;99.90
29713;DHT22;16623;53.632;10.016;2023-02-01T14:37:04;4.40;99.90
29713;DHT22;16623;53.632;10.016;2023-02-01T14:42:18;4.50;99.90
29713;DHT22;16623;53.632;10.016;2023-02-01T14:44:44;4.50;99.90
29713;DHT22;16623;53.632;10.016;2023-02-01T14:47:28;4.50;99.90
29713;DHT22;16623;53.632;10.016;2023-02-01T14:56:07;4.70;99.90
29713;DHT22;16623;53.632;10.016;2023-02-01T15:01:23;4.90;99.90
29713;DHT22;16623;53.632;10.016;2023-02-01T15:03:55;4.90;99.90
29713;DHT22;16623;53.632;10.016;2023-02-01T15:06:30;5.00;99.90
29713;DHT22;16623;53.632;10.016;2023-02-01T15:11:28;5.00;99.90
29713;DHT22;16623;53.632;10.016;2023-02-01T15:13:54;5.00;99.90
29713;DHT22;16623;53.632;10.016;2023-02-01T15:16:23;5.00;99.90
29713;DHT22;16623;53.632;10.016;2023-02-01T15:18:50;5.00;99.90
29713;DHT22;16623;53.632;10.016;2023-02-01T15:21:21;5.00;99.90
29713;DHT22;16623;53.632;10.016;2023-02-01T15:23:48;5.00;99.90
29713;DHT22;16623;53.632;10.016;2023-02-01T15:26:34;5.10;99.90
29713;DHT22;16623;53.632;10.016;2023-02-01T15:29:00;5.00;99.90
29713;DHT22;16623;53.632;10.016;2023-02-01T15:31:44;5.00;99.90
29713;DHT22;16623;53.632;10.016;2023-02-01T15:34:10;5.00;99.90
29713;DHT22;16623;53.632;10.016;2023-02-01T15:36:36;6.60;99.90
29713;DHT22;16623;53.632;10.016;2023-02-01T15:41:37;5.10;99.90
29713;DHT22;16623;53.632;10.016;2023-02-01T15:44:39;5.00;99.90
29713;DHT22;16623;53.632;10.016;2023-02-01T15:47:27;5.00;99.90
29713;DHT22;16623;53.632;10.016;2023-02-01T15:49:56;5.10;99.90
29713;DHT22;16623;53.632;10.016;2023-02-01T15:52:37;5.10;99.90
29713;DHT22;16623;53.632;10.016;2023-02-01T15:55:18;5.20;99.90
29713;DHT22;16623;53.632;10.016;2023-02-01T15:57:46;5.00;99.90
29713;DHT22;16623;53.632;10.016;2023-02-01T16:00:25;5.10;99.90
29713;DHT22;16623;53.632;10.016;2023-02-01T16:03:04;5.10;99.90
29713;DHT22;16623;53.632;10.016;2023-02-01T16:05:39;5.10;99.90
29713;DHT22;16623;53.632;10.016;2023-02-01T16:08:14;5.10;99.90
29713;DHT22;16623;53.632;10.016;2023-02-01T16:10:43;5.20;99.90
29713;DHT22;16623;53.632;10.016;2023-02-01T16:13:10;5.20;99.90
29713;DHT22;16623;53.632;10.016;2023-02-01T16:15:36;5.20;99.90
29713;DHT22;16623;53.632;10.016;2023-02-01T16:18:02;5.20;99.90
29713;DHT22;16623;53.632;10.016;2023-02-01T16:20:28;5.20;99.90
29713;DHT22;16623;53.632;10.016;2023-02-01T16:22:55;5.30;99.90
29713;DHT22;16623;53.632;10.016;2023-02-01T16:25:21;5.30;99.90
29713;DHT22;16623;53.632;10.016;2023-02-01T16:27:46;6.30;99.90
29713;DHT22;16623;53.632;10.016;2023-02-01T16:30:12;5.30;99.90
29713;DHT22;16623;53.632;10.016;2023-02-01T16:32:38;5.30;99.90
29713;DHT22;16623;53.632;10.016;2023-02-01T16:37:36;5.40;99.90
29713;DHT22;16623;53.632;10.016;2023-02-01T16:40:01;5.40;99.90
29713;DHT22;16623;53.632;10.016;2023-02-01T16:42:27;5.50;99.90
29713;DHT22;16623;53.632;10.016;2023-02-01T16:44:55;5.50;99.90
29713;DHT22;16623;53.632;10.016;2023-02-01T16:47:22;5.50;99.90
29713;DHT22;16623;53.632;10.016;2023-02-01T16:49:48;5.60;99.90
29713;DHT22;16623;53.632;10.016;2023-02-01T16:52:23;5.50;99.90
29713;DHT22;16623;53.632;10.016;2023-02-01T16:54:50;5.50;99.90
29713;DHT22;16623;53.632;10.016;2023-02-01T16:57:18;5.50;99.90
29713;DHT22;16623;53.632;10.016;2023-02-01T16:59:44;5.50;99.90
29713;DHT22;16623;53.632;10.016;2023-02-01T17:02:15;5.50;99.90
29713;DHT22;16623;53.632;10.016;2023-02-01T17:04:41;5.50;99.90
29713;DHT22;16623;53.632;10.016;2023-02-01T17:07:14;5.60;99.90
29713;DHT22;16623;53.632;10.016;2023-02-01T17:09:40;5.60;99.90
29713;DHT22;16623;53.632;10.016;2023-02-01T17:12:09;5.60;99.90
29713;DHT22;16623;53.632;10.016;2023-02-01T17:14:40;5.70;99.90
29713;DHT22;16623;53.632;10.016;2023-02-01T17:17:07;5.70;99.90
29713;DHT22;16623;53.632;10.016;2023-02-01T17:19:33;5.70;99.90
29713;DHT22;16623;53.632;10.016;2023-02-01T17:21:58;5.70;99.90
29713;DHT22;16623;53.632;10.016;2023-02-01T17:24:27;5.80;99.90
29713;DHT22;16623;53.632;10.016;2023-02-01T17:26:53;5.80;99.90
29713;DHT22;16623;53.632;10.016;2023-02-01T17:29:19;5.80;99.90
29713;DHT22;16623;53.632;10.016;2023-02-01T17:31:47;5.80;99.90
29713;DHT22;16623;53.632;10.016;2023-02-01T17:34:15;5.90;99.90
29713;DHT22;16623;53.632;10.016;2023-02-01T17:36:42;5.90;99.90
29713;DHT22;16623;53.632;10.016;2023-02-01T17:39:08;6.00;99.90
29713;DHT22;16623;53.632;10.016;2023-02-01T17:41:35;5.90;99.90
29713;DHT22;16623;53.632;10.016;2023-02-01T17:44:02;6.00;99.90
29713;DHT22;16623;53.632;10.016;2023-02-01T17:46:27;6.10;99.90
29713;DHT22;16623;53.632;10.016;2023-02-01T17:48:55;6.00;99.90
29713;DHT22;16623;53.632;10.016;2023-02-01T17:51:24;6.10;99.90
29713;DHT22;16623;53.632;10.016;2023-02-01T17:53:51;6.10;99.90
29713;DHT22;16623;53.632;10.016;2023-02-01T17:56:19;6.10;99.90
29713;DHT22;16623;53.632;10.016;2023-02-01T17:58:47;6.20;99.90
29713;DHT22;16623;53.632;10.016;2023-02-01T18:01:14;6.20;99.90
29713;DHT22;16623;53.632;10.016;2023-02-01T18:03:40;6.20;99.90
29713;DHT22;16623;53.632;10.016;2023-02-01T18:06:14;6.20;99.90
29713;DHT22;16623;53.632;10.016;2023-02-01T18:08:40;6.20;99.90
29713;DHT22;16623;53.632;10.016;2023-02-01T18:11:10;6.20;99.90
29713;DHT22;16623;53.632;10.016;2023-02-01T18:13:36;6.20;99.90
29713;DHT22;16623;53.632;10.016;2023-02-01T18:16:02;6.10;99.90
29713;DHT22;16623;53.632;10.016;2023-02-01T18:18:29;6.10;99.90
29713;DHT22;16623;53.632;10.016;2023-02-01T18:20:57;6.10;99.90
29713;DHT22;16623;53.632;10.016;2023-02-01T18:23:23;6.10;99.90
29713;DHT22;16623;53.632;10.016;2023-02-01T18:25:50;6.10;99.90
29713;DHT22;16623;53.632;10.016;2023-02-01T18:28:18;5.90;99.90
29713;DHT22;16623;53.632;10.016;2023-02-01T18:30:46;6.00;99.90